Time;durP1;ratioP1;P1;durP2;ratioP2;P2;SDS_P1;SDS_P2;PMS_P1;PMS_P2;Temp;Humidity;BMP_temperature;BMP_pressure;BME280_temperature;BME280_humidity;BME280_pressure;Samples;Min_cycle;Max_cycle;Signal;HPM_P1;HPM_P2
2021/11/15 00:01:05;;;;;;;70.63;45.63;;;8.80;97.40;;;;;;5028547;28;20118;-78
2021/11/15 00:03:31;;;;;;;71.72;45.80;;;8.80;97.40;;;;;;5049184;28;20033;-77
2021/11/15 00:05:57;;;;;;;69.82;45.05;;;8.80;97.30;;;;;;5029229;28;20528;-77
2021/11/15 00:08:23;;;;;;;68.55;45.20;;;8.80;97.30;;;;;;5040548;28;20095;-78
2021/11/15 00:10:48;;;;;;;70.80;45.72;;;8.80;97.20;;;;;;5031479;28;20124;-77
2021/11/15 00:13:14;;;;;;;64.13;44.72;;;8.80;97.20;;;;;;5048263;28;20029;-77
2021/11/15 00:15:40;;;;;;;67.68;45.05;;;8.80;97.10;;;;;;5030075;28;20432;-77
2021/11/15 00:18:08;;;;;;;67.97;45.67;;;8.80;97.10;;;;;;5029067;28;20026;-77
2021/11/15 00:20:35;;;;;;;67.43;45.15;;;8.80;97.10;;;;;;5021081;28;20109;-78
2021/11/15 00:23:02;;;;;;;69.75;45.47;;;8.80;97.00;;;;;;5026172;28;20040;-77
2021/11/15 00:25:27;;;;;;;70.13;45.65;;;8.80;97.00;;;;;;5047312;28;20033;-77
2021/11/15 00:27:53;;;;;;;63.40;42.92;;;8.80;97.00;;;;;;5026449;28;20026;-77
2021/11/15 00:30:19;;;;;;;68.47;44.33;;;8.80;96.90;;;;;;5001651;28;20410;-77
2021/11/15 00:32:45;;;;;;;69.13;46.05;;;8.80;96.80;;;;;;5012291;28;20029;-77
2021/11/15 00:35:11;;;;;;;65.78;44.40;;;8.80;96.80;;;;;;5024375;28;20058;-77
2021/11/15 00:37:38;;;;;;;65.78;43.70;;;8.80;96.80;;;;;;5005305;28;20056;-77
2021/11/15 00:40:07;;;;;;;67.53;45.67;;;8.80;96.70;;;;;;5043000;28;20037;-77
2021/11/15 00:42:33;;;;;;;70.28;44.95;;;8.80;96.70;;;;;;5039376;28;20033;-77
2021/11/15 00:44:59;;;;;;;68.82;44.97;;;8.80;96.70;;;;;;5021889;28;20037;-77
2021/11/15 00:47:24;;;;;;;66.82;44.90;;;8.80;96.70;;;;;;5047324;28;20470;-77
2021/11/15 00:49:50;;;;;;;68.22;45.08;;;8.80;96.70;;;;;;5038673;28;20029;-77
2021/11/15 00:52:16;;;;;;;68.97;43.47;;;8.80;96.60;;;;;;5030009;28;20033;-77
2021/11/15 00:54:42;;;;;;;68.03;44.85;;;8.80;96.60;;;;;;5049792;28;20028;-78
2021/11/15 00:57:08;;;;;;;67.47;45.13;;;8.80;96.60;;;;;;5028221;28;20414;-78
2021/11/15 00:59:34;;;;;;;67.70;43.47;;;8.80;96.50;;;;;;5034781;28;20044;-78
2021/11/15 01:02:02;;;;;;;62.83;42.10;;;8.80;96.50;;;;;;5044745;28;20025;-77
2021/11/15 01:04:28;;;;;;;63.60;42.03;;;8.80;96.40;;;;;;5029703;28;20026;-77
2021/11/15 01:06:55;;;;;;;70.85;43.72;;;8.80;96.40;;;;;;5041712;28;20055;-77
2021/11/15 01:09:22;;;;;;;62.95;42.00;;;8.80;96.40;;;;;;5042205;28;20049;-77
2021/11/15 01:11:48;;;;;;;68.10;43.17;;;8.80;96.40;;;;;;5039484;28;20025;-77
2021/11/15 01:14:14;;;;;;;67.20;41.25;;;8.80;96.60;;;;;;5028067;28;20041;-77
2021/11/15 01:16:40;;;;;;;65.05;40.15;;;8.80;96.40;;;;;;5040474;28;20206;-77
2021/11/15 01:19:06;;;;;;;61.63;39.83;;;8.80;96.40;;;;;;5024188;28;20112;-77
2021/11/15 01:21:33;;;;;;;58.53;38.35;;;8.80;96.40;;;;;;5028376;28;20028;-81
2021/11/15 01:23:58;;;;;;;61.70;39.25;;;8.80;96.70;;;;;;5043138;28;20028;-82
2021/11/15 01:26:25;;;;;;;61.22;38.70;;;8.80;96.40;;;;;;5053386;28;20033;-83
2021/11/15 01:28:51;;;;;;;57.70;36.55;;;8.70;96.30;;;;;;5027236;28;20053;-82
2021/11/15 01:31:18;;;;;;;62.78;38.17;;;8.80;96.40;;;;;;5048492;28;20033;-83
2021/11/15 01:33:45;;;;;;;54.53;35.03;;;8.80;96.40;;;;;;5048049;28;20068;-82
2021/11/15 01:36:10;;;;;;;55.13;34.70;;;8.70;96.30;;;;;;5019925;28;20041;-83
2021/11/15 01:38:36;;;;;;;58.20;36.10;;;8.70;96.30;;;;;;5029058;28;20033;-83
2021/11/15 01:41:04;;;;;;;56.85;35.20;;;8.70;96.40;;;;;;5013462;28;20025;-82
2021/11/15 01:43:29;;;;;;;53.05;34.28;;;8.70;96.40;;;;;;5049382;28;20030;-82
2021/11/15 01:45:55;;;;;;;58.30;35.38;;;8.70;96.40;;;;;;5046163;28;20086;-83
2021/11/15 01:48:21;;;;;;;54.20;34.80;;;8.70;96.40;;;;;;5046281;28;20044;-83
2021/11/15 01:50:47;;;;;;;55.33;34.30;;;8.80;96.40;;;;;;5029994;28;20033;-83
2021/11/15 01:53:13;;;;;;;53.63;33.50;;;8.70;96.40;;;;;;5032001;28;21377;-83
2021/11/15 01:55:41;;;;;;;54.83;34.50;;;8.70;96.40;;;;;;5031321;28;20021;-83
2021/11/15 01:58:09;;;;;;;54.53;34.13;;;8.70;96.40;;;;;;5032426;28;20032;-83
2021/11/15 02:00:45;;;;;;;59.15;36.85;;;8.70;96.40;;;;;;5035625;28;20804;-83
2021/11/15 02:03:13;;;;;;;53.35;35.28;;;8.70;96.70;;;;;;5049071;28;20040;-83
2021/11/15 02:05:39;;;;;;;61.15;35.13;;;8.60;96.30;;;;;;5031724;28;20028;-83
2021/11/15 02:08:05;;;;;;;52.85;33.92;;;8.70;96.30;;;;;;5048064;28;20067;-83
2021/11/15 02:10:31;;;;;;;51.42;33.17;;;8.70;96.30;;;;;;5040333;28;20070;-83
2021/11/15 02:12:57;;;;;;;55.65;35.00;;;8.70;96.30;;;;;;5024041;28;20124;-83
2021/11/15 02:15:23;;;;;;;52.55;33.58;;;8.70;96.30;;;;;;5018180;28;20025;-83
2021/11/15 02:17:49;;;;;;;49.63;31.80;;;8.60;96.20;;;;;;5029118;28;20033;-83
2021/11/15 02:20:22;;;;;;;48.33;30.85;;;8.60;96.20;;;;;;5048375;28;20692;-83
2021/11/15 02:22:50;;;;;;;50.83;31.00;;;8.60;96.20;;;;;;5028982;28;20025;-83
2021/11/15 02:25:18;;;;;;;48.75;30.88;;;8.60;96.20;;;;;;5037320;28;20025;-83
2021/11/15 02:27:45;;;;;;;46.05;30.40;;;8.60;96.20;;;;;;5042527;28;20032;-83
2021/11/15 02:30:19;;;;;;;49.90;32.25;;;8.60;96.20;;;;;;5034089;28;20087;-83
2021/11/15 02:32:46;;;;;;;46.60;30.00;;;8.60;96.20;;;;;;5049563;28;20485;-83
2021/11/15 02:35:12;;;;;;;47.00;31.27;;;8.60;96.20;;;;;;5052130;28;20048;-83
2021/11/15 02:37:38;;;;;;;48.00;31.50;;;8.60;96.20;;;;;;5048832;28;20029;-83
2021/11/15 02:40:07;;;;;;;43.78;30.05;;;8.60;96.20;;;;;;5049307;28;20027;-83
2021/11/15 02:42:34;;;;;;;46.20;30.98;;;8.60;96.20;;;;;;5039978;28;20068;-83
2021/11/15 02:45:00;;;;;;;47.17;32.20;;;8.60;96.20;;;;;;5047217;28;20445;-82
2021/11/15 02:47:26;;;;;;;47.97;31.85;;;8.60;96.20;;;;;;5038301;28;20107;-83
2021/11/15 02:49:51;;;;;;;49.20;33.42;;;8.60;96.20;;;;;;5033837;28;20033;-83
2021/11/15 02:52:17;;;;;;;47.13;31.33;;;8.60;96.10;;;;;;5045436;28;20042;-83
2021/11/15 02:54:47;;;;;;;51.70;32.80;;;8.60;96.10;;;;;;5046158;28;20029;-83
2021/11/15 02:57:18;;;;;;;48.63;31.75;;;8.60;96.10;;;;;;5042581;28;20037;-83
2021/11/15 02:59:44;;;;;;;47.28;30.48;;;8.60;96.00;;;;;;5032637;28;20056;-83
2021/11/15 03:02:11;;;;;;;48.45;32.65;;;8.60;96.00;;;;;;5051633;28;20063;-83
2021/11/15 03:04:38;;;;;;;46.63;31.25;;;8.60;96.10;;;;;;5029310;28;20061;-83
2021/11/15 03:07:04;;;;;;;51.90;32.67;;;8.60;96.10;;;;;;5043160;28;20033;-83
2021/11/15 03:09:30;;;;;;;49.40;33.55;;;8.60;96.00;;;;;;5034342;28;20036;-83
2021/11/15 03:11:56;;;;;;;49.97;33.60;;;8.60;96.00;;;;;;5031569;28;20025;-82
2021/11/15 03:14:21;;;;;;;47.30;32.78;;;8.50;95.90;;;;;;5019754;28;20048;-83
2021/11/15 03:16:47;;;;;;;49.85;33.22;;;8.60;96.30;;;;;;5031469;28;20762;-82
2021/11/15 03:19:13;;;;;;;52.95;32.88;;;8.60;95.90;;;;;;5034271;28;20037;-83
2021/11/15 03:21:39;;;;;;;48.88;32.15;;;8.60;96.00;;;;;;5028242;28;20037;-83
2021/11/15 03:24:05;;;;;;;46.35;31.98;;;8.60;96.00;;;;;;5044357;28;20029;-83
2021/11/15 03:26:30;;;;;;;51.65;34.05;;;8.50;96.00;;;;;;5045184;28;20032;-82
2021/11/15 03:28:57;;;;;;;51.88;34.53;;;8.50;96.00;;;;;;5041235;28;20033;-83
2021/11/15 03:31:26;;;;;;;54.70;35.55;;;8.50;96.00;;;;;;5026088;28;20103;-83
2021/11/15 03:33:53;;;;;;;;;;;8.50;96.10;;;;;;5042519;28;20563;-83
2021/11/15 03:36:19;;;;;;;57.00;38.15;;;8.50;95.90;;;;;;5048582;28;19920;-83
2021/11/15 03:38:45;;;;;;;55.65;38.85;;;8.50;96.00;;;;;;5047818;28;20028;-82
2021/11/15 03:41:11;;;;;;;54.05;38.70;;;8.50;96.00;;;;;;5000861;28;20199;-82
2021/11/15 03:43:37;;;;;;;55.50;38.67;;;8.50;95.90;;;;;;5044099;28;20029;-83
2021/11/15 03:46:03;;;;;;;60.50;41.10;;;8.50;96.00;;;;;;5045730;28;20040;-83
2021/11/15 03:48:29;;;;;;;58.70;39.55;;;8.50;95.90;;;;;;5023663;28;20032;-83
2021/11/15 03:50:55;;;;;;;55.22;38.28;;;8.50;95.90;;;;;;5036680;28;20021;-82
2021/11/15 03:53:31;;;;;;;54.45;37.42;;;8.50;95.90;;;;;;5031752;28;20025;-83
2021/11/15 03:55:57;;;;;;;54.25;37.70;;;8.50;96.00;;;;;;5023872;28;20026;-83
2021/11/15 03:58:23;;;;;;;62.22;41.67;;;8.50;96.00;;;;;;5031016;28;20939;-83
2021/11/15 04:00:49;;;;;;;58.17;39.13;;;8.50;96.00;;;;;;5031925;28;20033;-83
2021/11/15 04:03:18;;;;;;;67.47;42.28;;;8.50;96.00;;;;;;5040654;28;20104;-83
2021/11/15 04:05:53;;;;;;;62.10;41.38;;;8.50;96.00;;;;;;5044038;28;20078;-83
2021/11/15 04:08:18;;;;;;;63.22;42.67;;;8.50;96.00;;;;;;5040183;28;20112;-83
2021/11/15 04:10:45;;;;;;;65.72;45.63;;;8.50;96.00;;;;;;5040749;28;20816;-83
2021/11/15 04:13:17;;;;;;;67.93;45.88;;;8.50;95.80;;;;;;5026392;28;20509;-83
2021/11/15 04:15:45;;;;;;;65.75;45.25;;;8.50;95.80;;;;;;5026221;28;20029;-83
2021/11/15 04:18:13;;;;;;;68.03;46.15;;;8.50;95.80;;;;;;5039445;28;20394;-83
2021/11/15 04:20:40;;;;;;;67.47;46.50;;;8.50;95.80;;;;;;5037688;28;20112;-82
2021/11/15 04:23:06;;;;;;;64.32;44.55;;;8.50;95.80;;;;;;5029778;28;20182;-83
2021/11/15 04:25:31;;;;;;;67.03;45.47;;;8.50;95.80;;;;;;5047705;28;20103;-83
2021/11/15 04:27:58;;;;;;;69.45;47.15;;;8.50;95.80;;;;;;5038277;28;20504;-83
2021/11/15 04:30:24;;;;;;;68.50;45.60;;;8.50;95.80;;;;;;5024943;28;20048;-83
2021/11/15 04:32:50;;;;;;;69.95;47.15;;;8.50;95.80;;;;;;5046916;28;20033;-83
2021/11/15 04:35:20;;;;;;;67.10;47.42;;;8.50;95.80;;;;;;5042535;28;20452;-82
2021/11/15 04:37:46;;;;;;;67.97;46.63;;;8.40;95.80;;;;;;5028364;28;20033;-82
2021/11/15 04:40:13;;;;;;;70.95;45.97;;;8.50;95.80;;;;;;5047687;28;20032;-82
2021/11/15 04:42:39;;;;;;;70.82;48.67;;;8.50;95.80;;;;;;5034185;28;20542;-82
2021/11/15 04:45:05;;;;;;;72.13;48.75;;;8.40;95.80;;;;;;5046239;28;20104;-83
2021/11/15 04:47:32;;;;;;;67.80;47.50;;;8.50;95.70;;;;;;5020136;28;20128;-82
2021/11/15 04:49:57;;;;;;;70.22;47.95;;;8.50;95.70;;;;;;5030582;28;20084;-82
2021/11/15 04:52:23;;;;;;;70.32;47.55;;;8.50;95.70;;;;;;5027831;28;20076;-83
2021/11/15 04:54:49;;;;;;;75.45;49.75;;;8.50;95.70;;;;;;5010044;28;20079;-83
2021/11/15 04:57:17;;;;;;;70.53;48.42;;;8.40;95.70;;;;;;5030820;28;20037;-82
2021/11/15 04:59:43;;;;;;;70.45;46.92;;;8.50;95.70;;;;;;5027901;28;20049;-83
2021/11/15 05:02:09;;;;;;;70.57;47.70;;;8.50;95.70;;;;;;5032535;28;20023;-82
2021/11/15 05:04:34;;;;;;;73.93;49.17;;;8.40;95.70;;;;;;5046625;28;20014;-83
2021/11/15 05:07:00;;;;;;;76.88;49.78;;;8.40;95.70;;;;;;5028245;28;20033;-83
2021/11/15 05:09:26;;;;;;;73.45;48.95;;;8.40;95.80;;;;;;5047691;28;20103;-83
2021/11/15 05:11:51;;;;;;;75.15;49.85;;;8.40;95.80;;;;;;5043519;28;20029;-83
2021/11/15 05:14:17;;;;;;;79.25;50.88;;;8.40;95.70;;;;;;5030870;28;20071;-82
2021/11/15 05:16:43;;;;;;;72.72;49.67;;;8.40;95.70;;;;;;5034403;28;20107;-83
2021/11/15 05:19:08;;;;;;;76.13;49.97;;;8.40;95.80;;;;;;5042222;28;20025;-83
2021/11/15 05:21:34;;;;;;;79.43;51.47;;;8.40;95.80;;;;;;5014751;28;20029;-82
2021/11/15 05:23:59;;;;;;;81.30;52.28;;;8.40;95.80;;;;;;5030753;28;20517;-83
2021/11/15 05:26:25;;;;;;;83.53;53.15;;;8.40;95.90;;;;;;5030078;28;20421;-82
2021/11/15 05:28:51;;;;;;;77.63;52.20;;;8.40;95.80;;;;;;5049106;28;20108;-82
2021/11/15 05:31:17;;;;;;;80.78;53.08;;;8.40;95.80;;;;;;5047814;28;20029;-83
2021/11/15 05:33:43;;;;;;;78.72;52.33;;;8.40;95.80;;;;;;5046197;28;20037;-83
2021/11/15 05:36:09;;;;;;;75.90;49.83;;;8.40;95.80;;;;;;5049200;28;20533;-83
2021/11/15 05:38:37;;;;;;;79.30;49.63;;;8.40;95.80;;;;;;5034238;28;20037;-83
2021/11/15 05:41:02;;;;;;;77.45;50.05;;;8.40;95.80;;;;;;5024462;28;20032;-83
2021/11/15 05:43:28;;;;;;;85.90;52.17;;;8.30;95.80;;;;;;5024514;28;20025;-82
2021/11/15 05:45:54;;;;;;;81.05;51.65;;;8.30;95.80;;;;;;5052085;28;20064;-83
2021/11/15 05:48:20;;;;;;;85.93;54.90;;;8.30;95.90;;;;;;5034586;28;20138;-82
2021/11/15 05:50:47;;;;;;;83.40;53.53;;;8.30;95.80;;;;;;5049274;28;20009;-82
2021/11/15 05:53:14;;;;;;;83.10;53.05;;;8.30;95.90;;;;;;5024839;28;20032;-82
2021/11/15 05:55:41;;;;;;;91.88;55.75;;;8.30;95.90;;;;;;5036035;28;20025;-82
2021/11/15 05:58:07;;;;;;;82.43;53.42;;;8.30;95.80;;;;;;5052760;28;20029;-82
2021/11/15 06:00:32;;;;;;;86.00;54.90;;;8.30;95.80;;;;;;5033851;28;20471;-82
2021/11/15 06:02:58;;;;;;;83.55;52.15;;;8.30;95.80;;;;;;5035541;28;20025;-82
2021/11/15 06:05:24;;;;;;;82.57;52.33;;;8.30;95.80;;;;;;5022961;28;20083;-82
2021/11/15 06:07:50;;;;;;;85.35;52.17;;;8.30;95.90;;;;;;5010085;28;20037;-82
2021/11/15 06:10:16;;;;;;;85.55;51.83;;;8.30;95.90;;;;;;5039504;28;20060;-83
2021/11/15 06:12:43;;;;;;;90.63;53.97;;;8.40;95.90;;;;;;5038608;28;20033;-84
2021/11/15 06:15:11;;;;;;;85.63;53.38;;;8.40;95.90;;;;;;5040438;28;20035;-85
2021/11/15 06:17:37;;;;;;;80.15;50.28;;;8.40;95.90;;;;;;5039318;28;20099;-85
2021/11/15 06:20:08;;;;;;;86.38;53.08;;;8.40;95.90;;;;;;5045719;28;20519;-85
2021/11/15 06:22:33;;;;;;;95.40;54.30;;;8.40;96.00;;;;;;5043887;28;20020;-85
2021/11/15 06:24:59;;;;;;;89.40;52.92;;;8.40;95.90;;;;;;5032350;28;20087;-85
2021/11/15 06:27:25;;;;;;;83.18;51.00;;;8.30;95.90;;;;;;5030363;28;20039;-84
2021/11/15 06:29:51;;;;;;;87.95;52.05;;;8.30;95.90;;;;;;5023839;28;20112;-85
2021/11/15 06:32:16;;;;;;;83.35;49.42;;;8.30;95.90;;;;;;5035460;28;20367;-84
2021/11/15 06:34:42;;;;;;;89.30;54.75;;;8.30;95.90;;;;;;5027324;28;20049;-85
2021/11/15 06:37:08;;;;;;;91.43;55.55;;;8.30;95.90;;;;;;5046925;28;20104;-85
2021/11/15 06:39:34;;;;;;;77.78;49.17;;;8.30;95.90;;;;;;5032865;28;20037;-85
2021/11/15 06:42:00;;;;;;;86.32;52.20;;;8.30;95.90;;;;;;5046776;28;20029;-85
2021/11/15 06:44:27;;;;;;;86.95;53.30;;;8.30;95.90;;;;;;5029890;28;20025;-85
2021/11/15 06:46:53;;;;;;;84.85;51.92;;;8.30;95.80;;;;;;5029129;28;20167;-85
2021/11/15 06:49:19;;;;;;;86.20;52.20;;;8.30;95.80;;;;;;5034120;28;20487;-84
2021/11/15 06:51:46;;;;;;;80.22;50.03;;;8.30;95.90;;;;;;5024880;28;20064;-84
2021/11/15 06:54:13;;;;;;;76.85;48.13;;;8.30;96.10;;;;;;5004668;28;20406;-84
2021/11/15 06:56:39;;;;;;;85.28;50.70;;;8.30;95.90;;;;;;5043598;28;20772;-85
2021/11/15 06:59:06;;;;;;;81.78;49.47;;;8.30;95.80;;;;;;5031025;28;20037;-85
2021/11/15 07:01:35;;;;;;;81.72;47.90;;;8.30;95.80;;;;;;5018374;28;20029;-85
2021/11/15 07:04:02;;;;;;;83.80;49.17;;;8.30;95.80;;;;;;5031197;28;20056;-84
2021/11/15 07:06:27;;;;;;;75.38;45.17;;;8.20;95.80;;;;;;5052156;28;20071;-85
2021/11/15 07:08:53;;;;;;;76.80;46.05;;;8.30;95.80;;;;;;5034215;28;20038;-83
2021/11/15 07:11:19;;;;;;;76.10;45.35;;;8.30;95.80;;;;;;5025479;28;20112;-85
2021/11/15 07:13:44;;;;;;;76.97;45.90;;;8.20;95.70;;;;;;5051028;28;20107;-85
2021/11/15 07:16:10;;;;;;;80.05;47.35;;;8.20;95.80;;;;;;5046171;28;20108;-81
2021/11/15 07:18:36;;;;;;;76.10;44.75;;;8.30;95.80;;;;;;5028502;28;20091;-81
2021/11/15 07:21:03;;;;;;;76.03;44.85;;;8.20;95.80;;;;;;5052485;28;20029;-81
2021/11/15 07:23:29;;;;;;;76.93;46.13;;;8.20;95.80;;;;;;5053630;28;20040;-81
2021/11/15 07:25:54;;;;;;;81.28;47.83;;;8.20;96.10;;;;;;5051759;28;20029;-81
2021/11/15 07:28:22;;;;;;;77.50;46.85;;;8.20;95.80;;;;;;5032087;28;20031;-81
2021/11/15 07:30:48;;;;;;;73.40;43.65;;;8.20;95.80;;;;;;5034544;28;20052;-82
2021/11/15 07:33:15;;;;;;;75.72;42.50;;;8.20;95.70;;;;;;5040304;28;20030;-81
2021/11/15 07:35:41;;;;;;;73.60;41.83;;;8.20;95.70;;;;;;5034111;28;20041;-81
2021/11/15 07:38:07;;;;;;;74.18;40.55;;;8.20;95.70;;;;;;5052698;28;20029;-82
2021/11/15 07:40:33;;;;;;;71.95;40.80;;;8.10;95.50;;;;;;5050752;28;20042;-82
2021/11/15 07:42:59;;;;;;;68.63;39.90;;;8.10;95.50;;;;;;5034736;28;20155;-81
2021/11/15 07:45:24;;;;;;;62.97;38.58;;;8.10;95.60;;;;;;5023675;28;20029;-81
2021/11/15 07:47:50;;;;;;;66.45;39.85;;;8.10;95.60;;;;;;5052337;28;20033;-81
2021/11/15 07:50:17;;;;;;;61.60;38.70;;;8.00;95.70;;;;;;5007124;28;20037;-81
2021/11/15 07:52:42;;;;;;;64.70;38.72;;;8.00;95.70;;;;;;5026486;28;20031;-81
2021/11/15 07:55:12;;;;;;;62.15;38.13;;;8.00;95.70;;;;;;5049178;28;20036;-81
2021/11/15 07:57:39;;;;;;;62.10;38.25;;;8.00;95.70;;;;;;5052535;28;20029;-81
2021/11/15 08:00:07;;;;;;;64.40;37.03;;;8.10;95.70;;;;;;5031881;28;20033;-81
2021/11/15 08:02:33;;;;;;;61.30;37.78;;;8.00;95.70;;;;;;5016996;28;20037;-81
2021/11/15 08:04:59;;;;;;;62.80;37.50;;;8.00;95.70;;;;;;5006492;28;20043;-81
2021/11/15 08:07:25;;;;;;;64.15;37.45;;;8.00;95.70;;;;;;5006835;28;20057;-81
2021/11/15 08:09:50;;;;;;;70.93;40.25;;;8.00;95.70;;;;;;5029823;28;20033;-81
2021/11/15 08:12:19;;;;;;;68.75;39.97;;;8.00;95.60;;;;;;5044500;28;20100;-81
2021/11/15 08:14:45;;;;;;;68.75;37.90;;;8.00;95.70;;;;;;5029372;28;20036;-78
2021/11/15 08:17:12;;;;;;;63.55;37.13;;;8.00;95.70;;;;;;5030905;28;20393;-77
2021/11/15 08:19:42;;;;;;;65.32;37.90;;;8.00;95.70;;;;;;5044622;28;20036;-77
2021/11/15 08:22:09;;;;;;;68.68;37.70;;;8.00;95.70;;;;;;5020312;28;20037;-77
2021/11/15 08:24:53;;;;;;;74.90;40.30;;;8.00;95.70;;;;;;5042906;28;20432;-77
2021/11/15 08:27:18;;;;;;;72.53;40.08;;;8.00;95.70;;;;;;5048779;28;20115;-77
2021/11/15 08:29:45;;;;;;;73.43;39.03;;;8.00;95.60;;;;;;5021349;28;20570;-77
2021/11/15 08:32:13;;;;;;;69.13;38.38;;;8.00;95.60;;;;;;5018365;28;20488;-77
2021/11/15 08:34:39;;;;;;;67.40;38.20;;;7.90;95.60;;;;;;5044959;28;20381;-78
2021/11/15 08:37:05;;;;;;;66.93;38.15;;;7.90;95.60;;;;;;5046705;28;20028;-78
2021/11/15 08:39:32;;;;;;;67.60;36.55;;;8.00;95.70;;;;;;5038896;28;20684;-78
2021/11/15 08:42:04;;;;;;;67.38;39.15;;;8.00;95.70;;;;;;5046396;28;20116;-78
2021/11/15 08:44:32;;;;;;;67.40;37.78;;;8.00;95.70;;;;;;5043067;28;20079;-78
2021/11/15 08:46:58;;;;;;;64.43;37.22;;;8.00;95.70;;;;;;5039775;28;20021;-78
2021/11/15 08:49:27;;;;;;;68.50;39.42;;;8.00;95.70;;;;;;5041712;28;20037;-79
2021/11/15 08:51:54;;;;;;;69.00;39.08;;;8.00;95.60;;;;;;5039518;28;20103;-78
2021/11/15 08:54:22;;;;;;;64.60;38.10;;;8.00;95.60;;;;;;5041560;28;20044;-80
2021/11/15 08:57:00;;;;;;;70.85;39.70;;;8.00;95.60;;;;;;5009092;28;20497;-80
2021/11/15 08:59:26;;;;;;;66.22;38.15;;;8.00;95.70;;;;;;5032239;28;20382;-80
2021/11/15 09:01:52;;;;;;;72.70;38.22;;;8.00;95.60;;;;;;5030887;28;20025;-80
2021/11/15 09:04:19;;;;;;;73.45;38.70;;;8.10;95.70;;;;;;5051076;28;20496;-80
2021/11/15 09:06:46;;;;;;;69.07;37.10;;;8.10;95.50;;;;;;5051753;28;20029;-80
2021/11/15 09:09:15;;;;;;;76.88;39.05;;;8.10;95.60;;;;;;5047838;28;20567;-79
2021/11/15 09:11:49;;;;;;;69.85;38.80;;;8.10;95.60;;;;;;5033147;28;20405;-79
2021/11/15 09:14:17;;;;;;;74.30;39.50;;;8.10;95.60;;;;;;5015917;28;20029;-79
2021/11/15 09:16:43;;;;;;;73.20;40.20;;;8.10;95.60;;;;;;5033164;28;20035;-79
2021/11/15 09:19:10;;;;;;;73.07;38.85;;;8.10;95.60;;;;;;5042460;28;20025;-78
2021/11/15 09:21:36;;;;;;;72.20;40.15;;;8.00;95.90;;;;;;5030000;28;20026;-79
2021/11/15 09:24:03;;;;;;;68.82;39.38;;;8.00;95.60;;;;;;5023160;28;20116;-78
2021/11/15 09:26:28;;;;;;;70.78;40.53;;;8.00;95.70;;;;;;5046530;28;20029;-79
2021/11/15 09:29:05;;;;;;;77.75;41.42;;;8.10;95.70;;;;;;5039351;28;20086;-79
2021/11/15 09:31:31;;;;;;;67.53;38.85;;;8.10;95.70;;;;;;5048900;28;20039;-79
2021/11/15 09:33:57;;;;;;;72.40;40.80;;;8.10;96.00;;;;;;5024905;28;20037;-79
2021/11/15 09:36:24;;;;;;;75.88;41.78;;;8.00;95.70;;;;;;5024760;28;20035;-79
2021/11/15 09:38:55;;;;;;;71.90;40.17;;;8.10;96.00;;;;;;5034944;28;20047;-79
2021/11/15 09:41:21;;;;;;;72.38;41.42;;;8.10;95.70;;;;;;5031522;28;20041;-78
2021/11/15 09:43:47;;;;;;;67.90;40.60;;;8.10;95.60;;;;;;5033518;28;20428;-78
2021/11/15 09:46:19;;;;;;;71.05;38.67;;;8.10;95.70;;;;;;5035008;28;20021;-80
2021/11/15 09:48:48;;;;;;;63.90;36.95;;;8.10;95.70;;;;;;5052419;28;20044;-78
2021/11/15 09:51:15;;;;;;;63.25;38.10;;;8.00;95.70;;;;;;5049626;28;20374;-78
2021/11/15 09:53:41;;;;;;;63.85;36.97;;;8.00;95.70;;;;;;5018898;28;20041;-78
2021/11/15 09:56:10;;;;;;;60.55;36.75;;;8.10;95.70;;;;;;5034659;28;20355;-78
2021/11/15 09:58:37;;;;;;;63.97;34.33;;;8.00;95.70;;;;;;5053690;28;20029;-78
2021/11/15 10:01:05;;;;;;;57.35;30.25;;;8.10;96.00;;;;;;5034864;28;20056;-78
2021/11/15 10:03:32;;;;;;;54.70;27.38;;;8.10;95.80;;;;;;5034625;28;20486;-78
2021/11/15 10:05:58;;;;;;;54.88;30.58;;;8.10;95.80;;;;;;5048608;28;20029;-78
2021/11/15 10:08:23;;;;;;;56.05;29.02;;;8.00;95.80;;;;;;5034200;28;20021;-78
2021/11/15 10:10:57;;;;;;;60.60;31.83;;;8.10;95.90;;;;;;5016394;28;20048;-78
2021/11/15 10:13:31;;;;;;;68.95;34.55;;;8.10;96.00;;;;;;5033993;28;20148;-78
2021/11/15 10:16:04;;;;;;;66.90;34.05;;;8.10;96.00;;;;;;5037242;28;20178;-78
2021/11/15 10:18:45;;;;;;;66.20;34.28;;;8.10;96.00;;;;;;5052026;28;20033;-78
2021/11/15 10:21:33;;;;;;;67.32;34.47;;;8.00;96.00;;;;;;5053602;28;20052;-78
2021/11/15 10:24:04;;;;;;;65.83;33.93;;;8.00;96.10;;;;;;5051164;28;20100;-78
2021/11/15 10:26:42;;;;;;;69.68;34.35;;;8.00;96.10;;;;;;5053529;28;20305;-78
2021/11/15 10:29:14;;;;;;;68.15;34.65;;;8.00;96.50;;;;;;5035747;28;20051;-78
2021/11/15 10:31:44;;;;;;;71.07;34.05;;;8.00;96.30;;;;;;5035820;28;20116;-78
2021/11/15 10:34:13;;;;;;;70.93;33.28;;;7.90;96.30;;;;;;5053253;28;20052;-78
2021/11/15 10:36:50;;;;;;;;;;;7.90;96.40;;;;;;5051512;28;20404;-78
2021/11/15 10:39:19;;;;;;;60.90;31.88;;;7.90;96.40;;;;;;5036083;28;20258;-78
2021/11/15 10:42:06;;;;;;;65.95;32.53;;;7.90;96.50;;;;;;5053239;28;20051;-78
2021/11/15 10:44:33;;;;;;;67.85;31.50;;;8.00;96.50;;;;;;5033014;28;20131;-78
2021/11/15 10:46:59;;;;;;;59.03;31.13;;;7.90;96.50;;;;;;5035639;28;20030;-78
2021/11/15 10:49:25;;;;;;;66.70;31.65;;;7.90;96.50;;;;;;5015658;28;20047;-78
2021/11/15 10:51:58;;;;;;;62.38;31.92;;;7.90;96.60;;;;;;5020351;28;20030;-78
2021/11/15 10:55:02;;;;;;;69.22;34.28;;;7.90;96.60;;;;;;5034562;28;20425;-78
2021/11/15 10:57:33;;;;;;;62.55;30.02;;;7.90;96.70;;;;;;5007877;28;20412;-79
2021/11/15 11:00:05;;;;;;;61.90;30.50;;;7.90;96.70;;;;;;5014958;28;20048;-78
2021/11/15 11:02:32;;;;;;;60.72;30.92;;;7.90;96.80;;;;;;5017448;28;20033;-78
2021/11/15 11:05:10;;;;;;;63.15;31.58;;;7.90;96.70;;;;;;5052716;28;20028;-78
2021/11/15 11:07:37;;;;;;;61.30;31.08;;;7.90;96.90;;;;;;5042813;28;20116;-78
2021/11/15 11:10:08;;;;;;;63.03;31.88;;;7.90;96.90;;;;;;5034408;28;20055;-78
2021/11/15 11:12:43;;;;;;;70.60;32.47;;;7.90;97.00;;;;;;5051056;28;20528;-78
2021/11/15 11:15:27;;;;;;;65.45;30.95;;;7.90;96.90;;;;;;5036522;28;20124;-78
2021/11/15 11:18:34;;;;;;;69.30;31.38;;;7.90;96.90;;;;;;5052766;28;20029;-78
2021/11/15 11:26:44;;;;;;;57.47;28.70;;;7.80;97.10;;;;;;5039769;28;20025;-78
2021/11/15 11:29:20;;;;;;;62.58;29.50;;;7.90;97.10;;;;;;5032661;28;20045;-78
2021/11/15 11:31:51;;;;;;;70.30;32.45;;;7.90;97.10;;;;;;5034510;28;20036;-78
2021/11/15 11:34:19;;;;;;;57.95;29.00;;;7.90;97.10;;;;;;5027018;28;20762;-79
2021/11/15 11:36:45;;;;;;;55.72;27.20;;;7.90;97.10;;;;;;5031948;28;20494;-76
2021/11/15 11:39:11;;;;;;;56.30;27.55;;;7.90;97.10;;;;;;5031662;28;20121;-78
2021/11/15 11:41:42;;;;;;;54.20;26.83;;;7.90;97.10;;;;;;5046638;28;20034;-78
2021/11/15 11:44:11;;;;;;;50.60;25.13;;;7.90;97.20;;;;;;5046553;28;20489;-78
2021/11/15 11:46:37;;;;;;;54.90;26.50;;;7.90;97.20;;;;;;5031540;28;20025;-78
2021/11/15 11:49:08;;;;;;;50.38;24.92;;;7.90;97.10;;;;;;5022265;28;20083;-78
2021/11/15 11:51:34;;;;;;;50.95;24.13;;;8.00;97.20;;;;;;5033898;28;20032;-78
2021/11/15 11:54:07;;;;;;;51.08;23.92;;;8.00;97.20;;;;;;5033469;28;20449;-78
2021/11/15 11:56:34;;;;;;;50.42;24.80;;;8.00;97.20;;;;;;5035923;28;20025;-78
2021/11/15 11:59:15;;;;;;;52.63;24.13;;;8.00;97.10;;;;;;5012034;28;20029;-78
2021/11/15 12:01:54;;;;;;;48.30;23.40;;;7.90;97.20;;;;;;5032287;28;20028;-78
2021/11/15 12:04:20;;;;;;;50.75;23.95;;;7.90;97.10;;;;;;5032717;28;20125;-78
2021/11/15 12:06:49;;;;;;;51.42;23.08;;;7.90;97.10;;;;;;5014955;28;20038;-78
2021/11/15 12:09:17;;;;;;;47.42;23.58;;;7.90;97.10;;;;;;5031875;28;20029;-78
2021/11/15 12:12:06;;;;;;;52.58;24.20;;;8.00;97.20;;;;;;5014411;28;20045;-78
2021/11/15 12:14:40;;;;;;;45.53;22.60;;;8.00;97.20;;;;;;5029759;28;20024;-78
2021/11/15 12:17:16;;;;;;;46.05;22.98;;;8.00;97.10;;;;;;5036739;28;20263;-78
2021/11/15 12:19:56;;;;;;;52.10;23.30;;;8.00;97.10;;;;;;5024868;28;20022;-78
2021/11/15 12:22:24;;;;;;;44.35;22.00;;;8.00;97.10;;;;;;5031244;28;20035;-78
2021/11/15 12:25:20;;;;;;;50.13;22.92;;;8.00;97.00;;;;;;5040305;28;20051;-78
2021/11/15 12:27:59;;;;;;;43.17;21.95;;;8.00;96.90;;;;;;5045061;28;20041;-78
2021/11/15 12:30:35;;;;;;;44.72;22.17;;;8.00;96.90;;;;;;5041434;28;20366;-78
2021/11/15 12:35:54;;;;;;;47.22;24.88;;;8.00;96.90;;;;;;5036679;28;20068;-78
2021/11/15 12:38:30;;;;;;;;;;;8.00;96.90;;;;;;5028066;28;20032;-78
2021/11/15 12:40:56;;;;;;;46.30;23.55;;;7.90;96.80;;;;;;5021265;28;19959;-78
2021/11/15 12:43:22;;;;;;;49.25;22.90;;;7.90;96.80;;;;;;5029794;28;20049;-80
2021/11/15 12:46:07;;;;;;;51.97;24.13;;;7.90;96.70;;;;;;5051454;28;20033;-78
2021/11/15 12:48:41;;;;;;;44.17;22.33;;;7.90;97.00;;;;;;5077895;23;20532;-84
2021/11/15 12:51:15;;;;;;;39.70;21.27;;;7.90;96.80;;;;;;5036822;28;20043;-84